Time;durP1;ratioP1;P1;durP2;ratioP2;P2;SDS_P1;SDS_P2;PMS_P1;PMS_P2;Temp;Humidity;BMP_temperature;BMP_pressure;BME280_temperature;BME280_humidity;BME280_pressure;Samples;Min_cycle;Max_cycle;Signal;HPM_P1;HPM_P2
2023/10/09 00:01:27;;;;;;;4.70;3.08;;;;;;;15.61;100.00;102071.03;5095477;28;20036;-73
2023/10/09 00:03:54;;;;;;;3.80;3.40;;;;;;;15.61;100.00;102068.38;5074951;28;20039;-73
2023/10/09 00:06:37;;;;;;;4.63;3.65;;;;;;;15.61;100.00;102064.00;5075094;28;20060;-73
2023/10/09 00:11:48;;;;;;;3.88;3.55;;;;;;;15.64;100.00;102068.25;5078524;28;20380;-73
2023/10/09 00:14:15;;;;;;;5.93;3.97;;;;;;;15.66;100.00;102058.50;5085133;28;20280;-73
2023/10/09 00:16:48;;;;;;;4.20;3.25;;;;;;;15.66;100.00;102063.78;5094120;28;20043;-73
2023/10/09 00:19:19;;;;;;;5.10;3.22;;;;;;;15.67;100.00;102057.59;5095044;28;20230;-73
2023/10/09 00:21:48;;;;;;;4.28;3.88;;;;;;;15.67;100.00;102061.06;5093817;28;20032;-73
2023/10/09 00:24:17;;;;;;;4.10;3.80;;;;;;;15.69;100.00;102063.66;5074557;28;20055;-73
2023/10/09 00:26:45;;;;;;;4.28;3.78;;;;;;;15.69;100.00;102063.66;5074489;28;20036;-73
2023/10/09 00:29:23;;;;;;;7.47;4.00;;;;;;;15.69;100.00;102064.50;5073557;28;20099;-73
2023/10/09 00:32:03;;;;;;;4.45;3.55;;;;;;;15.71;100.00;102056.53;5074483;28;20041;-73
2023/10/09 00:34:28;;;;;;;3.53;3.15;;;;;;;15.71;100.00;102052.09;5084877;28;20032;-73
2023/10/09 00:36:54;;;;;;;6.50;4.57;;;;;;;15.71;100.00;102054.72;5093482;28;20208;-73
2023/10/09 00:42:06;;;;;;;5.63;3.92;;;;;;;15.73;100.00;102052.91;5074560;28;20056;-73
2023/10/09 00:44:38;;;;;;;3.50;3.20;;;;;;;15.74;100.00;102054.63;5074416;28;20631;-73
2023/10/09 00:47:20;;;;;;;4.78;3.55;;;;;;;15.76;100.00;102051.09;5074534;28;20056;-73
2023/10/09 00:49:49;;;;;;;4.20;3.20;;;;;;;15.79;100.00;102057.09;5073911;28;20032;-73
2023/10/09 00:52:29;;;;;;;3.47;3.17;;;;;;;15.79;100.00;102051.81;5073022;28;20036;-73
2023/10/09 00:55:00;;;;;;;3.05;2.80;;;;;;;15.80;100.00;102057.94;5074673;28;20366;-73
2023/10/09 00:57:28;;;;;;;3.08;2.78;;;;;;;15.82;100.00;102048.16;5074412;28;20036;-73
2023/10/09 01:00:00;;;;;;;3.40;3.10;;;;;;;15.82;100.00;102043.72;5074509;28;20270;-73
2023/10/09 01:02:35;;;;;;;4.07;2.92;;;;;;;15.83;100.00;102042.81;5074317;28;20420;-73
2023/10/09 01:05:11;;;;;;;3.30;3.00;;;;;;;15.85;100.00;102040.13;5074729;28;20028;-73
2023/10/09 01:07:44;;;;;;;5.30;3.33;;;;;;;15.85;100.00;102033.03;5073879;28;20040;-73
2023/10/09 01:10:11;;;;;;;3.35;3.10;;;;;;;15.87;100.00;102040.91;5077774;28;20048;-73
2023/10/09 01:12:42;;;;;;;3.20;2.90;;;;;;;15.87;100.00;102027.69;5088373;28;20037;-73
2023/10/09 01:15:08;;;;;;;3.13;2.92;;;;;;;15.87;100.00;102028.53;5078070;28;20036;-73
2023/10/09 01:17:39;;;;;;;3.95;3.28;;;;;;;15.88;100.00;102016.19;5073596;28;20263;-73
2023/10/09 01:20:05;;;;;;;3.40;3.10;;;;;;;15.88;100.00;102022.34;5073721;28;20036;-73
2023/10/09 01:22:30;;;;;;;3.50;3.20;;;;;;;15.90;100.00;102017.00;5073646;28;20235;-73
2023/10/09 01:24:56;;;;;;;4.20;3.45;;;;;;;15.88;100.00;102014.44;5076795;28;20031;-73
2023/10/09 01:27:24;;;;;;;2.97;2.78;;;;;;;15.90;100.00;102012.56;5083051;28;20249;-73
2023/10/09 01:29:51;;;;;;;3.85;3.03;;;;;;;15.91;100.00;101994.94;5096155;28;20091;-73
2023/10/09 01:32:18;;;;;;;2.83;2.63;;;;;;;15.91;100.00;101998.41;5096369;28;20040;-73
2023/10/09 01:34:45;;;;;;;3.22;2.70;;;;;;;15.91;100.00;101993.13;5077012;28;20240;-73
2023/10/09 01:37:18;;;;;;;3.47;3.08;;;;;;;15.92;100.00;101986.09;5077930;28;20032;-73
2023/10/09 01:39:51;;;;;;;3.15;2.90;;;;;;;15.93;100.00;101985.16;5076227;28;20031;-73
2023/10/09 01:42:24;;;;;;;3.38;3.03;;;;;;;15.93;100.00;101975.47;5077704;28;20103;-73
2023/10/09 01:44:51;;;;;;;3.55;3.25;;;;;;;15.94;100.00;101981.59;5077231;28;20052;-73
2023/10/09 01:47:18;;;;;;;2.83;2.63;;;;;;;15.93;100.00;101977.22;5077315;28;20070;-73
2023/10/09 01:49:48;;;;;;;9.25;3.58;;;;;;;15.93;100.00;101980.75;5076835;28;20036;-73
2023/10/09 01:52:18;;;;;;;4.90;3.30;;;;;;;15.94;100.00;101984.22;5077458;28;20028;-73
2023/10/09 01:54:50;;;;;;;4.07;3.67;;;;;;;15.95;100.00;101969.22;5077097;28;20036;-73
2023/10/09 01:57:22;;;;;;;3.53;3.22;;;;;;;15.95;100.00;101979.81;5077498;28;20127;-73
2023/10/09 01:59:49;;;;;;;3.55;3.25;;;;;;;15.93;100.00;101978.09;5076858;28;20037;-73
2023/10/09 02:04:52;;;;;;;3.25;2.95;;;;;;;15.95;100.00;101979.81;5076845;28;20036;-73
2023/10/09 02:07:28;;;;;;;3.50;3.20;;;;;;;15.96;100.00;101978.88;5077035;28;20036;-74
2023/10/09 02:09:57;;;;;;;3.20;2.92;;;;;;;15.96;100.00;101982.38;5078118;28;20044;-74
2023/10/09 02:12:23;;;;;;;3.40;3.10;;;;;;;15.95;100.00;101975.38;5097028;28;20319;-74
2023/10/09 02:14:49;;;;;;;5.05;3.42;;;;;;;15.96;100.00;101977.09;5076757;28;20032;-74
2023/10/09 02:17:18;;;;;;;3.28;3.08;;;;;;;15.96;100.00;101970.97;5077142;28;20108;-73
2023/10/09 02:19:49;;;;;;;4.28;3.22;;;;;;;15.97;100.00;101959.44;5076545;28;20035;-73
2023/10/09 02:22:15;;;;;;;3.53;3.22;;;;;;;15.97;100.00;101959.44;5081810;28;20173;-73
2023/10/09 02:24:50;;;;;;;3.65;3.35;;;;;;;15.96;100.00;101952.47;5096813;28;20027;-73
2023/10/09 02:30:14;;;;;;;4.03;3.53;;;;;;;15.94;100.00;101963.09;5096714;28;20022;-73
2023/10/09 02:32:40;;;;;;;3.90;3.60;;;;;;;15.94;100.00;101971.03;5095716;28;20272;-73
2023/10/09 02:35:19;;;;;;;5.43;3.50;;;;;;;15.94;100.00;101978.94;5075938;28;20040;-73
2023/10/09 02:37:46;;;;;;;3.78;3.42;;;;;;;15.93;100.00;101967.53;5076168;28;20040;-73
2023/10/09 02:40:22;;;;;;;4.00;3.70;;;;;;;15.94;100.00;101960.47;5076198;28;20044;-73
2023/10/09 02:42:49;;;;;;;4.00;3.70;;;;;;;15.95;100.00;101962.16;5076164;28;20038;-73
2023/10/09 02:45:16;;;;;;;4.07;3.30;;;;;;;15.95;100.00;101958.66;5095785;28;20335;-73
2023/10/09 02:47:42;;;;;;;4.10;3.70;;;;;;;15.95;100.00;101954.22;5095974;28;20032;-73
2023/10/09 02:50:19;;;;;;;4.05;3.75;;;;;;;15.97;100.00;101959.44;5076373;28;20024;-73
2023/10/09 02:52:47;;;;;;;3.85;3.55;;;;;;;15.96;100.00;101950.69;5075983;28;20028;-73
2023/10/09 02:55:28;;;;;;;3.58;3.28;;;;;;;15.98;100.00;101951.47;5076159;28;20040;-73
2023/10/09 02:58:10;;;;;;;4.28;3.20;;;;;;;15.99;100.00;101950.53;5075931;28;20059;-73
2023/10/09 03:00:36;;;;;;;3.83;3.53;;;;;;;16.00;100.00;101957.53;5075810;28;20033;-73
2023/10/09 03:03:06;;;;;;;5.40;3.92;;;;;;;16.03;100.00;101951.25;5075919;28;20040;-73
2023/10/09 03:05:32;;;;;;;5.93;3.67;;;;;;;16.02;100.00;101937.16;5075242;28;20044;-73
2023/10/09 03:07:57;;;;;;;6.18;4.03;;;;;;;16.05;100.00;101941.47;5075720;28;20115;-73
2023/10/09 03:10:23;;;;;;;4.13;3.55;;;;;;;16.06;100.00;101935.25;5075524;28;20047;-73
2023/10/09 03:12:52;;;;;;;4.30;3.75;;;;;;;16.06;100.00;101938.75;5075586;28;20335;-73
2023/10/09 03:15:20;;;;;;;3.90;3.50;;;;;;;16.07;100.00;101916.69;5075408;28;20048;-73
2023/10/09 03:17:47;;;;;;;4.13;3.42;;;;;;;16.10;100.00;101920.97;5078990;28;20040;-73
2023/10/09 03:20:13;;;;;;;3.60;3.30;;;;;;;16.10;100.00;101928.91;5081974;28;20377;-73
2023/10/09 03:22:40;;;;;;;4.93;3.50;;;;;;;16.12;100.00;101932.34;5095416;28;20073;-73
2023/10/09 03:25:13;;;;;;;5.70;3.70;;;;;;;16.13;100.00;101926.09;5077209;28;20039;-73
2023/10/09 03:27:44;;;;;;;4.22;3.30;;;;;;;16.15;100.00;101928.69;5074762;28;20028;-75
2023/10/09 03:30:16;;;;;;;4.03;3.63;;;;;;;16.16;100.00;101940.97;5075219;28;20558;-73
2023/10/09 03:32:42;;;;;;;4.75;3.40;;;;;;;16.16;100.00;101949.75;5074896;28;20227;-73
2023/10/09 03:35:10;;;;;;;4.07;3.67;;;;;;;16.17;100.00;101956.78;5075285;28;20251;-72
2023/10/09 03:37:35;;;;;;;4.97;3.75;;;;;;;16.19;100.00;101969.88;5074860;28;20032;-73
2023/10/09 03:40:03;;;;;;;5.25;3.85;;;;;;;16.21;100.00;101974.19;5075149;28;20028;-73
2023/10/09 03:42:30;;;;;;;8.18;5.25;;;;;;;16.23;100.00;101979.41;5074726;28;20131;-73
2023/10/09 03:44:57;;;;;;;5.97;3.90;;;;;;;16.22;100.00;101973.25;5075137;28;20036;-73
2023/10/09 03:47:24;;;;;;;4.72;3.80;;;;;;;16.23;100.00;101982.91;5074135;28;20062;-73
2023/10/09 03:49:53;;;;;;;5.50;4.07;;;;;;;16.24;100.00;101981.97;5074850;28;20032;-73
2023/10/09 03:52:19;;;;;;;4.65;3.85;;;;;;;16.25;100.00;101972.25;5075151;28;20040;-73
2023/10/09 03:54:46;;;;;;;4.40;3.72;;;;;;;16.24;100.00;101963.44;5074937;28;20032;-73
2023/10/09 03:57:12;;;;;;;8.13;4.55;;;;;;;16.25;100.00;101953.75;5075200;28;20036;-73
2023/10/09 03:59:38;;;;;;;8.95;5.13;;;;;;;16.25;100.00;101951.13;5074530;28;20060;-73
2023/10/09 04:02:04;;;;;;;5.82;5.07;;;;;;;16.24;100.00;101963.44;5074995;28;20032;-73
2023/10/09 04:04:32;;;;;;;5.60;4.13;;;;;;;16.25;100.00;101965.19;5085026;28;20039;-73
2023/10/09 04:06:58;;;;;;;6.35;4.38;;;;;;;16.25;100.00;101970.47;5095215;28;20040;-73
2023/10/09 04:12:12;;;;;;;4.65;4.07;;;;;;;16.26;100.00;101971.31;5094874;28;20051;-73
2023/10/09 04:14:48;;;;;;;4.35;3.60;;;;;;;16.26;100.00;101972.19;5094515;28;20036;-73
2023/10/09 04:22:49;;;;;;;6.25;4.65;;;;;;;16.25;100.00;101933.47;5094265;28;20088;-73
2023/10/09 04:25:15;;;;;;;6.15;4.60;;;;;;;16.25;100.00;101932.63;5078833;28;20227;-73
2023/10/09 04:27:41;;;;;;;6.63;4.65;;;;;;;16.24;100.00;101926.44;5074205;28;20060;-73
2023/10/09 04:30:07;;;;;;;6.82;4.30;;;;;;;16.25;100.00;101922.88;5075137;28;20502;-73
2023/10/09 04:32:34;;;;;;;6.47;4.45;;;;;;;16.25;100.00;101922.03;5093072;28;20255;-73
2023/10/09 04:37:52;;;;;;;8.80;5.05;;;;;;;16.24;100.00;101942.31;5093917;28;20047;-73
2023/10/09 04:43:06;;;;;;;4.78;4.38;;;;;;;16.25;100.00;101949.31;5094673;28;20055;-73
2023/10/09 04:48:10;;;;;;;5.90;4.50;;;;;;;16.26;100.00;101964.25;5094835;28;20036;-73
2023/10/09 04:55:53;;;;;;;4.72;4.20;;;;;;;16.26;100.00;101960.75;5093696;28;20365;-73
2023/10/09 04:58:23;;;;;;;4.82;4.32;;;;;;;16.26;100.00;101956.34;5094830;28;20247;-73
2023/10/09 05:01:04;;;;;;;4.60;4.20;;;;;;;16.26;100.00;101963.38;5097722;28;20085;-73
2023/10/09 05:03:42;;;;;;;4.15;3.78;;;;;;;16.26;100.00;101969.56;5097981;28;20039;-73
2023/10/09 05:06:21;;;;;;;4.32;3.85;;;;;;;16.26;100.00;101977.47;5078045;28;20276;-73
2023/10/09 05:08:48;;;;;;;4.43;4.03;;;;;;;16.27;100.00;101987.09;5093176;28;20044;-73
2023/10/09 05:14:11;;;;;;;4.03;3.65;;;;;;;16.29;100.00;101997.63;5077988;28;20429;-73
2023/10/09 05:16:37;;;;;;;4.35;3.88;;;;;;;16.28;100.00;101990.59;5077780;28;20101;-73
2023/10/09 05:19:06;;;;;;;6.05;3.80;;;;;;;16.28;100.00;101986.19;5077959;28;20341;-73
2023/10/09 05:24:16;;;;;;;4.50;4.07;;;;;;;16.28;100.00;101988.84;5077847;28;20044;-73
2023/10/09 05:37:26;;;;;;;5.13;4.22;;;;;;;16.27;100.00;101981.81;5095983;28;20038;-73
2023/10/09 06:14:02;;;;;;;5.38;4.75;;;;;;;16.24;100.00;101942.31;5080567;28;20042;-73
2023/10/09 06:19:42;;;;;;;5.47;4.82;;;;;;;16.23;100.00;101919.47;5027767;28;20061;-73
2023/10/09 06:24:42;;;;;;;;;;;;;;;16.24;100.00;101959.97;5063461;28;20048;-73
2023/10/09 06:27:38;;;;;;;6.35;4.70;;;;;;;16.26;100.00;101955.47;5089372;28;20077;-73
2023/10/09 06:32:38;;;;;;;4.35;4.00;;;;;;;16.26;100.00;101958.09;5093118;28;20036;-73
2023/10/09 06:35:16;;;;;;;4.75;4.22;;;;;;;16.26;100.00;101961.63;5087029;28;20058;-73
2023/10/09 06:46:36;;;;;;;9.27;5.75;;;;;;;16.23;100.00;101996.13;5087779;28;20040;-73
2023/10/09 06:48:44;;;;;;;5.88;4.53;;;;;;;16.25;100.00;102001.34;5094433;28;20051;-73
2023/10/09 06:59:04;;;;;;;5.88;4.35;;;;;;;16.29;100.00;101993.19;5088191;28;20039;-73
2023/10/09 07:01:42;;;;;;;5.55;3.92;;;;;;;16.31;100.00;101993.09;5087996;28;20036;-73
2023/10/09 07:06:52;;;;;;;9.93;5.30;;;;;;;16.34;100.00;101994.78;5089230;28;20081;-73
2023/10/09 07:09:19;;;;;;;6.28;4.55;;;;;;;16.34;100.00;101987.69;5087605;28;20036;-73
2023/10/09 07:15:01;;;;;;;4.95;4.45;;;;;;;16.34;100.00;101963.91;5084847;28;20040;-73
2023/10/09 07:17:43;;;;;;;6.93;4.78;;;;;;;16.34;100.00;101948.03;5080200;28;20043;-73
2023/10/09 07:22:53;;;;;;;6.13;4.75;;;;;;;16.37;100.00;101974.34;5085599;28;20211;-73
2023/10/09 07:28:18;;;;;;;4.82;4.32;;;;;;;16.41;100.00;101985.59;5084164;28;20059;-73
2023/10/09 07:30:43;;;;;;;5.93;4.40;;;;;;;16.41;100.00;101972.38;5086692;28;20032;-73
2023/10/09 07:38:08;;;;;;;5.45;4.45;;;;;;;16.47;100.00;101972.09;5093239;28;20091;-73
2023/10/09 07:43:39;;;;;;;8.15;5.25;;;;;;;16.53;100.00;101973.59;5087573;28;20089;-73
2023/10/09 07:48:52;;;;;;;16.67;5.95;;;;;;;16.56;100.00;101957.59;5083449;28;20035;-73
2023/10/09 07:51:22;;;;;;;6.35;5.07;;;;;;;16.58;100.00;101950.44;5091209;28;20027;-73
2023/10/09 07:54:42;;;;;;;9.98;5.32;;;;;;;16.60;100.00;101959.16;5093504;28;20227;-73
2023/10/09 07:56:43;;;;;;;9.65;5.00;;;;;;;16.63;100.00;101961.66;5081426;28;20059;-73
2023/10/09 07:59:12;;;;;;;7.47;4.47;;;;;;;16.66;100.00;101961.50;5087595;28;20035;-73
2023/10/09 08:01:58;;;;;;;6.75;4.93;;;;;;;16.69;100.00;101964.00;5079340;28;20032;-73
2023/10/09 08:04:37;;;;;;;8.65;5.13;;;;;;;16.70;100.00;101956.00;5084956;28;20038;-73
2023/10/09 08:07:25;;;;;;;7.15;4.88;;;;;;;16.75;100.00;101957.53;5085833;28;20032;-73
2023/10/09 08:11:19;;;;;;;14.97;5.93;;;;;;;16.77;100.00;101953.03;5086635;28;20044;-73
2023/10/09 08:12:57;;;;;;;11.68;5.68;;;;;;;16.80;100.00;101966.97;5084212;28;20291;-73
2023/10/09 08:15:28;;;;;;;13.38;6.03;;;;;;;16.83;100.00;101966.00;5090467;28;20032;-73
2023/10/09 08:18:03;;;;;;;10.65;5.03;;;;;;;16.86;100.00;101985.25;5093804;28;20042;-73
2023/10/09 08:20:51;;;;;;;6.65;5.07;;;;;;;16.89;100.00;101997.44;5089846;28;20032;-73
2023/10/09 08:23:29;;;;;;;7.07;5.07;;;;;;;16.91;100.00;102007.97;5093134;28;20040;-73
2023/10/09 08:26:13;;;;;;;6.85;4.45;;;;;;;16.95;100.00;102028.88;5089937;28;20059;-73
2023/10/09 08:28:45;;;;;;;7.68;4.60;;;;;;;16.98;100.00;102031.38;5093745;28;20108;-73
2023/10/09 08:31:19;;;;;;;6.22;4.38;;;;;;;17.00;100.00;102028.69;5088424;28;20107;-73
2023/10/09 08:33:57;;;;;;;4.95;3.95;;;;;;;17.02;100.00;102030.31;5093943;28;20105;-73
2023/10/09 08:36:28;;;;;;;4.32;3.92;;;;;;;17.05;100.00;102031.97;5093817;28;20054;-73
2023/10/09 08:38:58;;;;;;;6.57;4.68;;;;;;;17.10;100.00;102035.25;5095987;28;20032;-73
2023/10/09 08:41:29;;;;;;;7.45;4.22;;;;;;;17.12;100.00;102032.50;5090136;28;20060;-73
2023/10/09 08:43:56;;;;;;;7.63;4.35;;;;;;;17.14;100.00;102031.50;5086847;28;20054;-73
2023/10/09 08:46:27;;;;;;;6.47;4.60;;;;;;;17.19;100.00;102050.66;5098593;28;20100;-73
2023/10/09 08:48:58;;;;;;;5.53;4.05;;;;;;;17.21;100.00;102050.59;5081179;28;20024;-73
2023/10/09 08:51:27;;;;;;;5.30;4.80;;;;;;;17.24;100.00;102061.00;5095457;28;20053;-73
2023/10/09 08:53:54;;;;;;;4.97;4.43;;;;;;;17.25;100.00;102063.59;5089454;28;20045;-73
2023/10/09 08:56:23;;;;;;;5.47;4.15;;;;;;;17.30;100.00;102078.38;5094795;28;20371;-73
2023/10/09 08:58:57;;;;;;;6.18;4.32;;;;;;;17.32;100.00;102081.81;5088945;28;20083;-73
2023/10/09 09:01:24;;;;;;;7.78;5.05;;;;;;;17.34;100.00;102083.47;5088316;28;20078;-73
2023/10/09 09:03:51;;;;;;;7.45;5.43;;;;;;;17.37;100.00;102082.44;5087070;28;20111;-73
2023/10/09 09:06:19;;;;;;;9.73;6.15;;;;;;;17.40;100.00;102077.00;5096046;28;20087;-73
2023/10/09 09:08:46;;;;;;;12.20;5.68;;;;;;;17.42;100.00;102083.94;5095019;28;20303;-73
2023/10/09 09:13:50;;;;;;;16.73;6.05;;;;;;;17.48;100.00;102080.09;5087712;28;20038;-73
2023/10/09 09:16:20;;;;;;;12.88;6.20;;;;;;;17.54;100.00;102079.81;5093539;28;20035;-73
2023/10/09 09:21:54;;;;;;;8.05;4.93;;;;;;;17.57;100.00;102094.69;5084932;28;20254;-74
2023/10/09 09:24:39;;;;;;;20.80;5.78;;;;;;;17.58;100.00;102091.13;5080328;28;20184;-74
2023/10/09 09:27:18;;;;;;;6.57;4.55;;;;;;;17.59;100.00;102092.81;5096334;28;20088;-74
2023/10/09 09:30:23;;;;;;;5.93;4.53;;;;;;;17.60;100.00;102090.09;5095489;28;20043;-74
2023/10/09 09:32:39;;;;;;;7.90;5.18;;;;;;;17.64;100.00;102093.44;5093394;28;20433;-72
2023/10/09 09:35:17;;;;;;;5.43;4.50;;;;;;;17.67;100.00;102090.66;5094159;28;20051;-73
2023/10/09 09:37:53;;;;;;;13.05;4.97;;;;;;;17.67;100.00;102082.69;5085385;28;20523;-72
2023/10/09 09:40:33;;;;;;;7.47;4.25;;;;;;;17.70;100.00;102089.63;5097366;28;20073;-72
2023/10/09 09:43:11;;;;;;;8.38;4.57;;;;;;;17.72;100.00;102093.94;5094388;28;20208;-72
2023/10/09 09:45:37;;;;;;;5.78;4.40;;;;;;;17.76;100.00;102090.19;5097143;28;20363;-72
2023/10/09 09:48:15;;;;;;;13.48;5.18;;;;;;;17.76;100.00;102086.69;5088009;28;20354;-73
2023/10/09 09:50:47;;;;;;;10.20;5.00;;;;;;;17.78;100.00;102085.66;5080691;28;20044;-73
2023/10/09 09:53:19;;;;;;;10.80;4.60;;;;;;;17.81;100.00;102085.50;5084905;28;20322;-72
2023/10/09 09:55:55;;;;;;;7.18;4.65;;;;;;;17.84;100.00;102084.47;5095886;28;20040;-72
2023/10/09 09:58:23;;;;;;;8.00;4.70;;;;;;;17.83;100.00;102094.22;5094531;28;20036;-72
2023/10/09 10:00:54;;;;;;;9.65;4.63;;;;;;;17.82;100.00;102097.81;5095412;28;20032;-72
2023/10/09 10:03:36;;;;;;;10.93;4.45;;;;;;;17.84;100.00;102097.72;5085288;28;20032;-72
2023/10/09 10:06:09;;;;;;;7.93;4.68;;;;;;;17.84;100.00;102084.47;5096918;28;20339;-72
2023/10/09 10:08:38;;;;;;;12.05;4.75;;;;;;;17.83;100.00;102083.63;5085283;28;20024;-72
2023/10/09 10:11:04;;;;;;;9.60;4.40;;;;;;;17.87;99.72;102086.16;5079206;28;20239;-72
2023/10/09 10:13:59;;;;;;;9.13;4.97;;;;;;;17.87;99.67;102102.06;5094059;28;20098;-72
2023/10/09 10:16:24;;;;;;;12.25;4.72;;;;;;;17.88;99.15;102093.16;5094352;28;20051;-72
2023/10/09 10:19:00;;;;;;;6.20;3.75;;;;;;;17.90;99.50;102099.22;5089190;28;20138;-72
2023/10/09 10:21:39;;;;;;;11.38;5.07;;;;;;;17.92;99.87;102094.72;5091333;28;20255;-72
2023/10/09 10:24:30;;;;;;;9.90;4.93;;;;;;;17.95;99.65;102102.50;5090192;28;20296;-73
2023/10/09 10:27:18;;;;;;;9.27;4.70;;;;;;;17.96;98.69;102096.28;5095511;28;20040;-73
2023/10/09 10:29:46;;;;;;;9.00;5.72;;;;;;;17.97;98.92;102104.16;5079271;28;20063;-72
2023/10/09 10:32:11;;;;;;;5.80;4.85;;;;;;;18.01;99.63;102099.56;5086604;28;20051;-74
2023/10/09 10:34:46;;;;;;;7.28;4.45;;;;;;;18.06;99.73;102097.50;5090227;28;20020;-74
2023/10/09 10:37:13;;;;;;;4.00;3.70;;;;;;;18.10;99.86;102095.53;5085575;28;20051;-72
2023/10/09 10:39:50;;;;;;;5.05;3.65;;;;;;;18.12;99.60;102097.19;5093635;28;20032;-72
2023/10/09 10:42:33;;;;;;;6.50;4.13;;;;;;;18.15;99.79;102106.78;5093113;28;20035;-75
2023/10/09 10:45:03;;;;;;;13.88;5.22;;;;;;;18.15;99.52;102101.47;5091329;28;20035;-75
2023/10/09 10:47:33;;;;;;;11.77;5.05;;;;;;;18.14;99.08;102108.56;5093330;28;20134;-72
2023/10/09 10:50:11;;;;;;;9.30;5.05;;;;;;;18.15;98.98;102118.22;5094965;28;20028;-73
2023/10/09 10:52:41;;;;;;;8.07;5.13;;;;;;;18.17;99.17;102120.81;5089522;28;20062;-73
2023/10/09 10:55:18;;;;;;;7.97;4.53;;;;;;;18.19;99.32;102116.28;5095169;28;20270;-73
2023/10/09 10:58:00;;;;;;;8.02;5.07;;;;;;;18.19;98.95;102119.81;5091131;28;20039;-73
2023/10/09 11:03:35;;;;;;;8.30;4.75;;;;;;;18.21;99.14;102109.97;5091812;28;20039;-73
2023/10/09 11:06:14;;;;;;;8.57;4.45;;;;;;;18.21;98.97;102117.91;5095228;28;20040;-73
2023/10/09 11:09:08;;;;;;;10.27;4.80;;;;;;;18.23;98.55;102110.75;5092956;28;20357;-73
2023/10/09 11:11:41;;;;;;;7.80;4.80;;;;;;;18.26;98.44;102100.91;5091706;28;20411;-74
2023/10/09 11:14:14;;;;;;;6.10;4.28;;;;;;;18.28;98.70;102096.38;5094165;28;20032;-73
2023/10/09 11:16:43;;;;;;;6.00;4.30;;;;;;;18.29;98.70;102100.75;5094311;28;20031;-73
2023/10/09 11:19:26;;;;;;;7.32;5.10;;;;;;;18.28;98.71;102096.38;5093438;28;20075;-73
2023/10/09 11:21:58;;;;;;;7.53;4.25;;;;;;;18.29;98.69;102098.94;5090617;28;20297;-74
2023/10/09 11:24:27;;;;;;;9.20;4.30;;;;;;;18.31;98.80;102098.88;5095374;28;20012;-74
2023/10/09 11:26:56;;;;;;;9.60;4.65;;;;;;;18.31;98.97;102097.06;5090321;28;20036;-74
2023/10/09 11:29:23;;;;;;;12.63;4.93;;;;;;;18.31;98.37;102097.06;5087680;28;20403;-74
2023/10/09 11:32:05;;;;;;;11.32;5.20;;;;;;;18.34;97.79;102102.22;5083679;28;20024;-74
2023/10/09 11:34:32;;;;;;;9.15;5.00;;;;;;;18.38;97.99;102098.44;5084991;28;20339;-73
2023/10/09 11:37:00;;;;;;;10.82;4.25;;;;;;;18.42;97.93;102100.00;5088598;28;20232;-73
2023/10/09 11:39:49;;;;;;;7.70;4.40;;;;;;;18.46;97.67;102105.13;5080571;28;20103;-73
2023/10/09 11:42:35;;;;;;;10.93;4.25;;;;;;;18.48;97.49;102101.47;5088914;28;20031;-73
2023/10/09 11:45:04;;;;;;;8.82;4.93;;;;;;;18.49;97.87;102105.84;5085912;28;20077;-73
2023/10/09 11:47:34;;;;;;;13.23;4.78;;;;;;;18.47;96.95;102097.09;5085596;28;20042;-74
2023/10/09 11:52:37;;;;;;;13.30;5.05;;;;;;;18.46;96.60;102094.53;5077502;28;20093;-74
2023/10/09 11:55:16;;;;;;;6.20;4.10;;;;;;;18.46;97.00;102103.34;5085453;28;20122;-74
2023/10/09 11:57:41;;;;;;;;;;;;;;;18.45;97.06;102099.00;5086259;28;20194;-74
2023/10/09 12:00:24;;;;;;;9.90;4.20;;;;;;;18.46;97.06;102098.03;5088903;28;20018;-73
2023/10/09 12:02:49;;;;;;;8.98;4.10;;;;;;;18.47;97.36;102098.91;5087783;28;20032;-74
2023/10/09 12:05:16;;;;;;;4.10;3.80;;;;;;;18.47;97.57;102099.75;5089674;28;20342;-74
2023/10/09 12:07:57;;;;;;;10.00;4.30;;;;;;;18.46;97.77;102094.53;5090721;28;20103;-73
2023/10/09 12:10:26;;;;;;;22.65;4.93;;;;;;;18.46;97.20;102082.13;5092184;28;20028;-74
2023/10/09 12:12:52;;;;;;;16.75;5.63;;;;;;;18.46;97.57;102090.06;5094571;28;20035;-74
2023/10/09 12:15:19;;;;;;;8.90;4.80;;;;;;;18.47;96.96;102090.97;5081511;28;20239;-74
2023/10/09 12:17:46;;;;;;;9.93;5.07;;;;;;;18.47;97.30;102083.84;5083107;28;20044;-74
2023/10/09 12:20:30;;;;;;;14.88;5.10;;;;;;;18.48;97.01;102090.00;5092260;28;20036;-74
2023/10/09 12:22:57;;;;;;;13.38;5.03;;;;;;;18.50;97.42;102091.66;5080048;28;20087;-74
2023/10/09 12:25:23;;;;;;;6.53;4.03;;;;;;;18.53;97.34;102082.66;5094115;28;20035;-74
2023/10/09 12:27:49;;;;;;;14.85;5.35;;;;;;;18.53;97.46;102086.16;5093044;28;20318;-74
2023/10/09 12:30:14;;;;;;;10.15;5.38;;;;;;;18.51;96.67;102085.38;5094325;28;20039;-74
2023/10/09 12:32:40;;;;;;;21.70;5.55;;;;;;;18.52;96.51;102087.09;5086449;28;20354;-73
2023/10/09 12:35:17;;;;;;;13.32;5.28;;;;;;;18.53;96.45;102085.31;5092115;28;20040;-74
2023/10/09 12:37:43;;;;;;;20.60;5.35;;;;;;;18.51;96.24;102085.38;5081574;28;20050;-74
2023/10/09 12:40:10;;;;;;;11.00;5.00;;;;;;;18.51;96.51;102085.38;5094107;28;20334;-73
2023/10/09 12:42:36;;;;;;;19.48;5.47;;;;;;;18.49;96.10;102084.63;5085733;28;20088;-74
2023/10/09 12:45:08;;;;;;;16.98;5.25;;;;;;;18.49;96.42;102089.06;5093031;28;20027;-74
2023/10/09 12:47:34;;;;;;;14.10;5.18;;;;;;;18.48;96.45;102082.91;5079736;28;20046;-74
2023/10/09 12:49:59;;;;;;;13.85;4.90;;;;;;;18.46;96.63;102087.41;5094735;28;20036;-74
2023/10/09 12:52:29;;;;;;;13.45;5.15;;;;;;;18.49;97.01;102097.03;5085367;28;20239;-74
2023/10/09 12:54:55;;;;;;;9.93;5.68;;;;;;;18.49;97.15;102105.84;5094301;28;20039;-74
2023/10/09 12:57:21;;;;;;;6.32;4.65;;;;;;;18.49;97.03;102095.22;5091144;28;20040;-74
2023/10/09 12:59:48;;;;;;;6.80;4.78;;;;;;;18.49;97.62;102100.53;5080075;28;20032;-73
2023/10/09 13:02:29;;;;;;;8.73;4.80;;;;;;;18.47;97.14;102102.41;5092502;28;20099;-74
2023/10/09 13:04:56;;;;;;;9.98;4.90;;;;;;;18.49;97.18;102099.69;5091299;28;20044;-74
2023/10/09 13:07:22;;;;;;;25.00;5.32;;;;;;;18.48;97.11;102092.66;5091434;28;20028;-74
2023/10/09 13:10:08;;;;;;;14.02;4.82;;;;;;;18.51;97.22;102093.34;5093798;28;20047;-74
2023/10/09 13:12:38;;;;;;;13.90;5.10;;;;;;;18.53;97.17;102096.75;5083960;28;21137;-74
2023/10/09 13:15:08;;;;;;;12.88;4.57;;;;;;;18.56;97.41;102091.28;5071963;28;20124;-74
2023/10/09 13:17:34;;;;;;;6.95;4.30;;;;;;;18.60;97.76;102087.53;5082186;28;20246;-74
2023/10/09 13:19:59;;;;;;;7.20;3.85;;;;;;;18.64;97.80;102098.84;5083428;28;20035;-74
2023/10/09 13:22:25;;;;;;;17.38;5.57;;;;;;;18.67;97.32;102095.16;5078872;28;20350;-74
2023/10/09 13:24:52;;;;;;;4.32;3.70;;;;;;;18.69;97.58;102101.25;5078404;28;20114;-73
2023/10/09 13:27:21;;;;;;;10.63;4.85;;;;;;;18.68;97.36;102089.78;5080333;28;20552;-74
2023/10/09 13:29:47;;;;;;;8.55;4.68;;;;;;;18.68;97.12;102087.13;5088370;28;20032;-73
2023/10/09 13:32:16;;;;;;;12.13;4.82;;;;;;;18.70;96.79;102092.31;5088475;28;20435;-74
2023/10/09 13:34:44;;;;;;;;;;;;;;;18.71;97.07;102088.75;5094142;28;20028;-73
2023/10/09 13:37:13;;;;;;;6.90;5.13;;;;;;;18.74;97.30;102086.78;5094713;28;19969;-74
2023/10/09 13:39:56;;;;;;;29.13;6.47;;;;;;;18.77;97.36;102086.63;5092210;28;20047;-74
2023/10/09 13:42:24;;;;;;;11.82;6.00;;;;;;;18.80;97.18;102086.44;5090747;28;20036;-74
2023/10/09 13:44:53;;;;;;;9.93;5.50;;;;;;;18.82;96.73;102088.19;5094343;28;20481;-74
2023/10/09 13:47:20;;;;;;;10.55;5.55;;;;;;;18.80;96.32;102083.78;5095773;28;20042;-73
2023/10/09 13:49:53;;;;;;;13.55;5.53;;;;;;;18.81;96.66;102082.03;5095735;28;20043;-73
2023/10/09 13:52:19;;;;;;;16.73;6.20;;;;;;;18.80;96.86;102078.47;5092299;28;20058;-74
2023/10/09 13:54:49;;;;;;;10.48;5.28;;;;;;;18.80;97.02;102075.81;5092937;28;20246;-74
2023/10/09 13:57:15;;;;;;;14.60;5.40;;;;;;;18.81;97.18;102084.69;5094618;28;20066;-74
2023/10/09 13:59:49;;;;;;;13.00;5.18;;;;;;;18.83;97.26;102079.25;5092690;28;20028;-74